createdAt,value
2023-03-19T00:01:12.234Z,4.03
2023-03-19T00:03:40.921Z,4.10
2023-03-19T00:06:10.079Z,3.67
2023-03-19T00:08:39.455Z,4.88
2023-03-19T00:11:09.785Z,6.28
2023-03-19T00:13:38.806Z,5.07
2023-03-19T00:16:09.401Z,5.07
2023-03-19T00:18:39.674Z,6.95
2023-03-19T00:21:08.521Z,6.15
2023-03-19T00:23:37.990Z,7.85
2023-03-19T00:26:07.127Z,5.82
2023-03-19T00:28:37.376Z,4.35
2023-03-19T00:31:10.776Z,4.22
2023-03-19T00:33:43.218Z,3.78
2023-03-19T00:36:13.373Z,4.45
2023-03-19T00:38:42.626Z,5.15
2023-03-19T00:41:11.855Z,5.82
2023-03-19T00:43:41.709Z,5.45
2023-03-19T00:46:10.832Z,5.65
2023-03-19T00:48:40.880Z,4.13
2023-03-19T00:51:11.798Z,3.63
2023-03-19T00:53:40.781Z,5.50
2023-03-19T00:56:10.619Z,4.55
2023-03-19T00:58:41.168Z,6.35
2023-03-19T01:01:11.580Z,4.43
2023-03-19T01:03:41.667Z,4.03
2023-03-19T01:06:11.676Z,4.03
2023-03-19T01:08:40.873Z,3.92
2023-03-19T01:11:12.168Z,4.13
2023-03-19T01:13:41.630Z,4.35
2023-03-19T01:16:11.183Z,4.43
2023-03-19T01:18:41.774Z,5.40
2023-03-19T01:21:11.156Z,6.63
2023-03-19T01:23:39.972Z,4.10
2023-03-19T01:26:10.780Z,4.03
2023-03-19T01:28:39.796Z,5.03
2023-03-19T01:31:10.618Z,5.10
2023-03-19T01:33:42.091Z,4.55
2023-03-19T01:36:16.127Z,5.30
2023-03-19T01:38:44.767Z,3.92
2023-03-19T01:41:13.882Z,5.78
2023-03-19T01:43:42.509Z,4.88
2023-03-19T01:46:19.827Z,3.92
2023-03-19T01:48:53.176Z,4.18
2023-03-19T01:51:27.435Z,6.38
2023-03-19T01:54:00.644Z,5.00
2023-03-19T01:56:34.118Z,4.28
2023-03-19T01:59:07.885Z,4.32
2023-03-19T02:01:41.380Z,5.22
2023-03-19T02:04:11.856Z,5.13
2023-03-19T02:06:43.353Z,8.57
2023-03-19T02:09:14.641Z,8.45
2023-03-19T02:11:44.253Z,6.47
2023-03-19T02:14:13.482Z,3.92
2023-03-19T02:16:43.301Z,4.53
2023-03-19T02:19:30.409Z,3.28
2023-03-19T02:22:01.106Z,8.07
2023-03-19T02:24:37.007Z,3.90
2023-03-19T02:27:09.663Z,5.15
2023-03-19T02:29:39.863Z,4.60
2023-03-19T02:32:10.025Z,13.82
2023-03-19T02:34:41.049Z,8.65
2023-03-19T02:37:16.535Z,5.80
2023-03-19T02:39:53.572Z,7.10
2023-03-19T02:42:25.780Z,6.63
2023-03-19T02:44:54.623Z,5.40
2023-03-19T02:47:26.803Z,5.07
2023-03-19T02:49:56.925Z,4.78
2023-03-19T02:52:25.892Z,4.90
2023-03-19T02:54:54.882Z,6.13
2023-03-19T02:57:25.396Z,6.47
2023-03-19T02:59:54.114Z,5.78
2023-03-19T03:02:23.152Z,4.93
2023-03-19T03:04:52.278Z,3.80
2023-03-19T03:07:23.463Z,4.13
2023-03-19T03:09:53.050Z,4.53
2023-03-19T03:12:21.816Z,7.05
2023-03-19T03:14:53.176Z,4.68
2023-03-19T03:17:21.574Z,4.13
2023-03-19T03:19:49.960Z,7.10
2023-03-19T03:22:19.327Z,4.47
2023-03-19T03:24:48.579Z,4.38
2023-03-19T03:27:18.004Z,4.47
2023-03-19T03:29:47.120Z,5.00
2023-03-19T03:32:18.074Z,5.03
2023-03-19T03:34:47.822Z,4.80
2023-03-19T03:37:17.472Z,5.50
2023-03-19T03:39:46.784Z,3.83
2023-03-19T03:42:15.663Z,4.97
2023-03-19T03:44:44.449Z,5.53
2023-03-19T03:47:14.229Z,4.13
2023-03-19T03:49:45.736Z,4.88
2023-03-19T03:52:14.563Z,3.65
2023-03-19T03:54:46.713Z,4.53
2023-03-19T03:57:15.372Z,4.47
2023-03-19T03:59:44.290Z,5.10
2023-03-19T04:02:13.815Z,4.82
2023-03-19T04:04:44.378Z,4.35
2023-03-19T04:07:16.279Z,4.85
2023-03-19T04:09:46.535Z,4.75
2023-03-19T04:12:16.476Z,5.22
2023-03-19T04:14:45.605Z,4.68
2023-03-19T04:17:14.280Z,5.65
2023-03-19T04:19:44.805Z,3.58
2023-03-19T04:22:16.456Z,5.25
2023-03-19T04:24:45.233Z,3.50
2023-03-19T04:27:14.154Z,5.13
2023-03-19T04:29:43.208Z,4.30
2023-03-19T04:32:12.582Z,4.95
2023-03-19T04:34:42.247Z,6.28
2023-03-19T04:37:13.194Z,5.70
2023-03-19T04:39:41.633Z,5.22
2023-03-19T04:42:10.295Z,4.03
2023-03-19T04:44:39.185Z,4.53
2023-03-19T04:47:08.222Z,4.90
2023-03-19T04:49:36.589Z,8.48
2023-03-19T04:52:06.291Z,5.18
2023-03-19T04:54:36.688Z,6.15
2023-03-19T04:57:07.314Z,5.22
2023-03-19T04:59:36.276Z,6.60
2023-03-19T05:02:05.246Z,4.40
2023-03-19T05:04:34.286Z,5.97
2023-03-19T05:07:03.031Z,4.70
2023-03-19T05:09:32.482Z,5.05
2023-03-19T05:12:03.040Z,7.20
2023-03-19T05:14:32.679Z,7.05
2023-03-19T05:17:01.669Z,5.47
2023-03-19T05:19:31.165Z,6.53
2023-03-19T05:22:00.081Z,6.63
2023-03-19T05:24:28.958Z,6.50
2023-03-19T05:26:58.735Z,5.85
2023-03-19T05:29:29.318Z,4.85
2023-03-19T05:31:58.051Z,5.55
2023-03-19T05:34:27.459Z,6.85
2023-03-19T05:36:56.372Z,3.78
2023-03-19T05:39:25.334Z,5.00
2023-03-19T05:41:54.166Z,3.42
2023-03-19T05:44:22.937Z,5.22
2023-03-19T05:46:53.539Z,4.25
2023-03-19T05:49:22.229Z,5.25
2023-03-19T05:51:50.833Z,5.43
2023-03-19T05:54:19.616Z,6.55
2023-03-19T05:56:48.630Z,4.53
2023-03-19T05:59:18.803Z,5.10
2023-03-19T06:01:47.345Z,8.32
2023-03-19T06:04:17.557Z,4.57
2023-03-19T06:06:46.514Z,3.78
2023-03-19T06:09:15.489Z,4.28
2023-03-19T06:11:45.249Z,4.10
2023-03-19T06:14:14.096Z,4.50
2023-03-19T06:16:43.516Z,5.20
2023-03-19T06:19:13.109Z,4.93
2023-03-19T06:21:43.317Z,5.10
2023-03-19T06:24:11.904Z,4.30
2023-03-19T06:26:40.831Z,4.45
2023-03-19T06:29:09.381Z,5.15
2023-03-19T06:31:39.677Z,6.40
2023-03-19T06:34:08.700Z,5.25
2023-03-19T06:36:37.585Z,5.85
2023-03-19T06:39:08.042Z,4.45
2023-03-19T06:41:37.435Z,5.70
2023-03-19T06:44:06.238Z,5.63
2023-03-19T06:46:34.990Z,4.90
2023-03-19T06:49:03.598Z,5.45
2023-03-19T06:51:32.463Z,4.88
2023-03-19T06:54:01.161Z,5.45
2023-03-19T06:56:31.396Z,4.63
2023-03-19T06:59:00.562Z,6.15
2023-03-19T07:01:29.401Z,7.60
2023-03-19T07:03:58.688Z,5.20
2023-03-19T07:06:27.246Z,5.95
2023-03-19T07:08:56.325Z,6.20
2023-03-19T07:11:25.088Z,4.68
2023-03-19T07:13:55.151Z,4.68
2023-03-19T07:16:25.457Z,6.15
2023-03-19T07:18:53.932Z,4.80
2023-03-19T07:21:22.629Z,3.97
2023-03-19T07:23:52.842Z,6.25
2023-03-19T07:26:21.862Z,4.15
2023-03-19T07:28:51.030Z,5.38
2023-03-19T07:31:21.204Z,7.78
2023-03-19T07:33:49.728Z,4.55
2023-03-19T07:36:19.073Z,4.55
2023-03-19T07:38:47.556Z,7.50
2023-03-19T07:41:16.094Z,5.30
2023-03-19T07:43:44.680Z,8.15
2023-03-19T07:46:14.114Z,5.72
2023-03-19T07:48:44.709Z,10.43
2023-03-19T07:51:13.389Z,5.90
2023-03-19T07:53:41.908Z,5.10
2023-03-19T07:56:10.264Z,6.70
2023-03-19T07:58:38.734Z,5.32
2023-03-19T08:01:07.620Z,7.22
2023-03-19T08:03:36.212Z,7.90
2023-03-19T08:06:06.983Z,4.60
2023-03-19T08:08:36.160Z,4.35
2023-03-19T08:11:05.283Z,6.60
2023-03-19T08:13:34.331Z,5.70
2023-03-19T08:16:02.918Z,5.20
2023-03-19T08:18:31.806Z,3.63
2023-03-19T08:21:00.480Z,3.88
2023-03-19T08:23:30.803Z,7.13
2023-03-19T08:25:59.698Z,8.07
2023-03-19T08:28:28.179Z,9.15
2023-03-19T08:30:57.207Z,5.32
2023-03-19T08:33:26.061Z,5.30
2023-03-19T08:35:54.657Z,3.45
2023-03-19T08:38:23.347Z,5.38
2023-03-19T08:40:53.480Z,5.05
2023-03-19T08:43:22.282Z,6.15
2023-03-19T08:45:51.080Z,4.93
2023-03-19T08:48:20.861Z,4.07
2023-03-19T08:50:55.297Z,2.97
2023-03-19T08:53:24.577Z,3.72
2023-03-19T08:55:55.932Z,4.00
2023-03-19T09:00:54.493Z,4.55
2023-03-19T09:03:23.230Z,4.32
2023-03-19T09:05:52.223Z,2.70
2023-03-19T09:08:21.724Z,3.30
2023-03-19T09:10:51.564Z,2.30
2023-03-19T09:13:23.890Z,4.03
2023-03-19T09:15:53.334Z,2.63
2023-03-19T09:18:24.199Z,2.45
2023-03-19T09:20:52.881Z,2.70
2023-03-19T09:23:22.283Z,2.53
2023-03-19T09:25:51.566Z,2.90
2023-03-19T09:28:23.452Z,3.22
2023-03-19T09:30:53.056Z,3.22
2023-03-19T09:33:22.880Z,3.03
2023-03-19T09:35:53.524Z,3.08
2023-03-19T09:38:22.520Z,4.15
2023-03-19T09:41:05.005Z,3.38
2023-03-19T09:44:01.193Z,3.53
2023-03-19T09:46:40.123Z,2.40
2023-03-19T09:49:16.328Z,2.22
2023-03-19T09:51:52.507Z,1.92
2023-03-19T09:54:32.300Z,2.05
2023-03-19T09:57:01.624Z,2.47
2023-03-19T09:59:32.158Z,4.03
2023-03-19T10:02:15.695Z,3.25
2023-03-19T10:04:53.174Z,2.92
2023-03-19T10:07:40.079Z,2.38
2023-03-19T10:10:26.510Z,2.30
2023-03-19T10:13:02.145Z,3.53
2023-03-19T10:15:36.304Z,5.38
2023-03-19T10:18:12.300Z,1.92
2023-03-19T10:20:47.967Z,1.95
2023-03-19T10:23:34.056Z,2.20
2023-03-19T10:26:05.915Z,1.98
2023-03-19T10:28:34.387Z,2.95
2023-03-19T10:31:15.454Z,2.50
2023-03-19T10:33:47.221Z,2.22
2023-03-19T10:36:16.460Z,2.88
2023-03-19T10:38:46.449Z,2.22
2023-03-19T10:41:26.739Z,3.70
2023-03-19T10:43:58.669Z,1.65
2023-03-19T10:46:29.653Z,1.83
2023-03-19T10:48:59.738Z,2.45
2023-03-19T10:51:29.763Z,2.20
2023-03-19T10:54:02.509Z,2.47
2023-03-19T10:56:37.046Z,2.65
2023-03-19T10:59:07.597Z,2.03
2023-03-19T11:01:41.090Z,1.83
2023-03-19T11:04:18.851Z,1.77
2023-03-19T11:06:51.222Z,1.88
2023-03-19T11:09:25.693Z,1.75
2023-03-19T11:11:59.597Z,2.20
2023-03-19T11:14:34.382Z,2.33
2023-03-19T11:17:08.528Z,1.73
2023-03-19T11:19:43.539Z,2.35
2023-03-19T11:22:21.128Z,2.33
2023-03-19T11:24:56.298Z,1.70
2023-03-19T11:27:34.835Z,2.10
2023-03-19T11:30:04.818Z,2.33
2023-03-19T11:33:10.598Z,2.63
2023-03-19T11:35:43.318Z,2.42
2023-03-19T11:38:19.588Z,2.28
2023-03-19T11:40:54.921Z,4.50
2023-03-19T11:43:44.320Z,1.98
2023-03-19T11:46:25.441Z,2.30
2023-03-19T11:49:27.573Z,4.72
2023-03-19T11:52:06.154Z,2.60
2023-03-19T11:54:45.252Z,2.03
2023-03-19T11:57:19.859Z,2.35
2023-03-19T12:00:01.673Z,2.80
2023-03-19T12:03:09.777Z,2.30
2023-03-19T12:05:50.024Z,1.80
2023-03-19T12:08:35.657Z,2.38
2023-03-19T12:11:14.475Z,2.35
2023-03-19T12:13:59.556Z,2.35
2023-03-19T12:16:44.130Z,1.70
2023-03-19T12:19:35.672Z,2.03
2023-03-19T12:22:16.745Z,2.55
2023-03-19T12:27:34.990Z,3.03
2023-03-19T12:30:14.146Z,2.78
2023-03-19T12:32:58.338Z,2.78
2023-03-19T12:35:35.853Z,3.63
2023-03-19T12:38:12.219Z,2.80
2023-03-19T12:40:45.284Z,3.85
2023-03-19T12:43:20.350Z,3.63
2023-03-19T12:45:52.525Z,2.65
2023-03-19T12:48:27.930Z,2.38
2023-03-19T12:51:01.187Z,2.20
2023-03-19T12:53:41.805Z,2.13
2023-03-19T12:56:14.772Z,2.15
2023-03-19T12:58:58.129Z,2.45
2023-03-19T13:01:32.322Z,2.55
2023-03-19T13:04:08.056Z,2.28
2023-03-19T13:06:39.738Z,3.40
2023-03-19T13:09:18.949Z,3.42
2023-03-19T13:11:52.462Z,3.90
2023-03-19T13:14:29.147Z,3.05
2023-03-19T13:17:04.248Z,3.03
2023-03-19T13:19:40.554Z,3.03
2023-03-19T13:22:14.060Z,4.50
2023-03-19T13:24:46.330Z,2.50
2023-03-19T13:27:20.928Z,7.55
2023-03-19T13:30:08.430Z,4.65
2023-03-19T13:32:42.603Z,3.15
2023-03-19T13:35:22.197Z,2.20
2023-03-19T13:37:56.940Z,4.18
2023-03-19T13:40:55.417Z,2.95
2023-03-19T13:43:49.385Z,2.53
2023-03-19T13:46:41.099Z,2.60
2023-03-19T13:52:18.303Z,2.50
2023-03-19T13:54:48.051Z,2.50
2023-03-19T13:57:37.823Z,2.20
2023-03-19T14:00:48.933Z,4.55
2023-03-19T14:03:25.906Z,4.05
2023-03-19T14:05:58.122Z,6.18
2023-03-19T14:08:29.214Z,3.55
2023-03-19T14:10:59.925Z,5.00
2023-03-19T14:13:34.012Z,4.65
2023-03-19T14:16:10.895Z,6.13
2023-03-19T14:18:44.505Z,5.35
2023-03-19T14:21:22.123Z,6.05
2023-03-19T14:24:01.127Z,4.80
2023-03-19T14:26:30.622Z,3.70
2023-03-19T14:29:04.530Z,4.93
2023-03-19T14:31:43.999Z,4.88
2023-03-19T14:34:29.239Z,3.45
2023-03-19T14:37:03.917Z,5.60
2023-03-19T14:39:34.408Z,2.78
2023-03-19T14:42:07.386Z,4.22
2023-03-19T14:45:10.212Z,3.92
2023-03-19T14:48:02.193Z,3.88
2023-03-19T14:50:56.167Z,4.07
2023-03-19T14:53:30.691Z,6.32
2023-03-19T14:56:12.674Z,5.03
2023-03-19T14:58:50.824Z,7.22
2023-03-19T15:01:20.138Z,5.15
2023-03-19T15:03:59.214Z,5.07
2023-03-19T15:06:35.407Z,4.22
2023-03-19T15:09:05.614Z,5.22
2023-03-19T15:11:53.678Z,6.50
2023-03-19T15:14:46.557Z,6.78
2023-03-19T15:17:23.008Z,5.07
2023-03-19T15:19:52.272Z,4.13
2023-03-19T15:22:28.111Z,5.15
2023-03-19T15:25:06.214Z,9.25
2023-03-19T15:27:35.512Z,4.88
2023-03-19T15:30:50.518Z,6.80
2023-03-19T15:33:39.021Z,4.70
2023-03-19T15:36:13.634Z,5.93
2023-03-19T15:38:47.923Z,3.55
2023-03-19T15:41:17.491Z,3.45
2023-03-19T15:43:47.203Z,5.03
2023-03-19T15:46:19.600Z,3.40
2023-03-19T15:48:52.758Z,4.28
2023-03-19T15:51:24.763Z,5.32
2023-03-19T15:53:56.602Z,6.57
2023-03-19T15:56:26.695Z,6.60
2023-03-19T15:58:58.961Z,6.43
2023-03-19T16:01:29.320Z,5.72
2023-03-19T16:04:02.504Z,7.32
2023-03-19T16:06:34.335Z,5.78
2023-03-19T16:09:23.350Z,8.02
2023-03-19T16:11:52.498Z,5.55
2023-03-19T16:14:27.193Z,6.80
2023-03-19T16:17:02.787Z,5.90
2023-03-19T16:19:34.582Z,6.47
2023-03-19T16:22:06.209Z,5.40
2023-03-19T16:27:09.192Z,6.97
2023-03-19T16:29:42.002Z,6.53
2023-03-19T16:32:22.864Z,8.13
2023-03-19T16:34:53.883Z,8.73
2023-03-19T16:37:39.993Z,7.38
2023-03-19T16:40:46.877Z,6.35
2023-03-19T16:43:21.786Z,5.97
2023-03-19T16:45:54.879Z,7.13
2023-03-19T16:48:23.385Z,4.57
2023-03-19T16:50:52.449Z,6.00
2023-03-19T16:53:24.864Z,6.32
2023-03-19T16:55:57.051Z,7.85
2023-03-19T16:58:34.299Z,7.93
2023-03-19T17:01:03.464Z,9.90
2023-03-19T17:03:32.043Z,11.30
2023-03-19T17:06:03.273Z,15.57
2023-03-19T17:08:33.727Z,12.80
2023-03-19T17:11:04.584Z,9.80
2023-03-19T17:13:35.210Z,12.55
2023-03-19T17:16:06.956Z,7.73
2023-03-19T17:18:37.906Z,3.75
2023-03-19T17:21:12.843Z,5.32
2023-03-19T17:23:42.036Z,6.20
2023-03-19T17:26:18.979Z,6.05
2023-03-19T17:28:48.792Z,4.47
2023-03-19T17:31:28.275Z,4.85
2023-03-19T17:34:01.780Z,6.97
2023-03-19T17:36:31.242Z,4.85
2023-03-19T17:39:00.112Z,4.97
2023-03-19T17:41:33.243Z,6.80
2023-03-19T17:44:04.272Z,5.53
2023-03-19T17:46:40.980Z,5.47
2023-03-19T17:49:20.363Z,4.82
2023-03-19T17:51:48.938Z,6.70
2023-03-19T17:54:17.655Z,5.95
2023-03-19T17:56:48.061Z,7.40
2023-03-19T17:59:16.854Z,6.82
2023-03-19T18:01:47.375Z,5.63
2023-03-19T18:04:19.805Z,6.53
2023-03-19T18:06:51.914Z,7.43
2023-03-19T18:09:23.001Z,9.20
2023-03-19T18:11:54.626Z,6.68
2023-03-19T18:16:52.541Z,5.30
2023-03-19T18:19:29.343Z,6.78
2023-03-19T18:21:58.194Z,6.82
2023-03-19T18:24:27.351Z,7.80
2023-03-19T18:26:57.982Z,6.80
2023-03-19T18:29:27.011Z,8.50
2023-03-19T18:31:56.146Z,9.20
2023-03-19T18:34:25.385Z,6.68
2023-03-19T18:36:54.151Z,7.95
2023-03-19T18:39:23.079Z,7.50
2023-03-19T18:41:51.757Z,5.60
2023-03-19T18:44:21.760Z,4.53
2023-03-19T18:46:50.520Z,4.97
2023-03-19T18:49:24.379Z,3.65
2023-03-19T18:52:02.504Z,3.50
2023-03-19T18:54:32.181Z,4.50
2023-03-19T18:57:02.532Z,3.30
2023-03-19T18:59:34.397Z,2.53
2023-03-19T19:02:04.925Z,1.70
2023-03-19T19:04:34.015Z,1.95
2023-03-19T19:07:03.889Z,2.10
2023-03-19T19:09:32.695Z,5.22
2023-03-19T19:12:02.394Z,5.55
2023-03-19T19:14:33.016Z,2.60
2023-03-19T19:17:03.370Z,1.98
2023-03-19T19:19:35.216Z,1.92
2023-03-19T19:22:04.352Z,1.92
2023-03-19T19:24:34.619Z,1.67
2023-03-19T19:27:04.049Z,1.33
2023-03-19T19:29:34.620Z,2.58
2023-03-19T19:32:04.557Z,1.77
2023-03-19T19:34:33.547Z,2.72
2023-03-19T19:37:02.983Z,2.80
2023-03-19T19:39:31.449Z,2.10
2023-03-19T19:42:00.054Z,2.72
2023-03-19T19:44:29.229Z,1.65
2023-03-19T19:46:59.283Z,3.15
2023-03-19T19:49:29.233Z,1.73
2023-03-19T19:51:59.711Z,2.28
2023-03-19T19:54:28.754Z,2.70
2023-03-19T19:56:58.060Z,2.80
2023-03-19T19:59:28.092Z,2.47
2023-03-19T20:01:59.138Z,2.20
2023-03-19T20:04:45.410Z,3.05
2023-03-19T20:07:15.840Z,1.58
2023-03-19T20:09:48.308Z,1.83
2023-03-19T20:12:22.333Z,2.35
2023-03-19T20:14:55.201Z,3.30
2023-03-19T20:17:24.136Z,3.85
2023-03-19T20:19:54.206Z,4.47
2023-03-19T20:22:23.209Z,5.75
2023-03-19T20:24:52.522Z,4.25
2023-03-19T20:27:24.053Z,6.28
2023-03-19T20:29:55.052Z,3.85
2023-03-19T20:32:31.166Z,4.60
2023-03-19T20:35:03.829Z,1.55
2023-03-19T20:37:35.179Z,3.25
2023-03-19T20:40:04.326Z,2.20
2023-03-19T20:42:35.663Z,2.20
2023-03-19T20:45:04.824Z,3.65
2023-03-19T20:47:36.569Z,3.30
2023-03-19T20:52:43.368Z,2.22
2023-03-19T20:55:17.178Z,1.35
2023-03-19T20:57:49.431Z,2.00
2023-03-19T21:00:24.890Z,2.63
2023-03-19T21:03:03.711Z,2.47
2023-03-19T21:05:40.911Z,2.08
2023-03-19T21:08:20.012Z,2.72
2023-03-19T21:10:53.342Z,2.88
2023-03-19T21:13:26.099Z,2.70
2023-03-19T21:15:56.500Z,3.42
2023-03-19T21:18:28.280Z,2.72
2023-03-19T21:23:57.532Z,2.00
2023-03-19T21:26:28.845Z,2.88
2023-03-19T21:29:03.064Z,3.60
2023-03-19T21:31:40.946Z,3.67
2023-03-19T21:34:28.470Z,2.22
2023-03-19T21:36:57.898Z,1.70
2023-03-19T21:39:30.275Z,2.85
2023-03-19T21:41:59.305Z,2.60
2023-03-19T21:44:30.438Z,3.30
2023-03-19T21:46:59.616Z,3.35
2023-03-19T21:49:32.062Z,2.40
2023-03-19T21:52:03.537Z,3.97
2023-03-19T21:54:35.061Z,1.95
2023-03-19T21:57:03.751Z,1.10
2023-03-19T21:59:35.428Z,1.63
2023-03-19T22:04:32.721Z,1.48
2023-03-19T22:07:01.485Z,2.03
2023-03-19T22:09:30.096Z,1.40
2023-03-19T22:12:00.385Z,2.42
2023-03-19T22:14:30.302Z,2.22
2023-03-19T22:17:01.219Z,1.83
2023-03-19T22:19:30.024Z,1.83
2023-03-19T22:21:59.098Z,2.05
2023-03-19T22:24:28.701Z,2.30
2023-03-19T22:27:01.545Z,1.80
2023-03-19T22:29:32.863Z,1.73
2023-03-19T22:32:02.019Z,2.83
2023-03-19T22:34:31.161Z,2.25
2023-03-19T22:37:00.597Z,1.80
2023-03-19T22:39:29.145Z,1.90
2023-03-19T22:41:57.597Z,1.63
2023-03-19T22:44:30.509Z,2.70
2023-03-19T22:47:02.054Z,2.17
2023-03-19T22:49:31.749Z,2.15
2023-03-19T22:52:01.148Z,1.33
2023-03-19T22:54:29.933Z,1.27
2023-03-19T22:56:58.755Z,1.60
2023-03-19T22:59:28.852Z,3.53
2023-03-19T23:01:58.366Z,2.08
2023-03-19T23:04:28.729Z,1.95
2023-03-19T23:07:01.179Z,1.95
2023-03-19T23:09:31.924Z,1.50
2023-03-19T23:12:03.374Z,1.90
2023-03-19T23:14:33.449Z,1.00
2023-03-19T23:17:04.290Z,1.77
2023-03-19T23:19:35.580Z,1.05
2023-03-19T23:22:06.567Z,1.38
2023-03-19T23:24:36.983Z,2.65
2023-03-19T23:27:06.086Z,1.67
2023-03-19T23:29:47.771Z,1.25
2023-03-19T23:32:17.198Z,1.15
2023-03-19T23:34:58.554Z,1.73
2023-03-19T23:37:30.149Z,2.28
2023-03-19T23:39:59.147Z,1.67
2023-03-19T23:42:30.385Z,1.80
2023-03-19T23:45:03.919Z,2.28
2023-03-19T23:47:33.317Z,1.75
2023-03-19T23:50:02.773Z,1.40
2023-03-19T23:52:31.849Z,2.00
2023-03-19T23:55:00.738Z,1.77
2023-03-19T23:57:29.335Z,1.90
2023-03-19T23:59:58.124Z,3.45
